• Join FlightAware (Why Join?)
  • Login
  • US Flag 
09:16AM EDT


 

Airport Tracker/Info


-or-


 

Live Flight TrackerFlight Track Log ✈ UCA3596 ✈ 17-Oct-2013 ✈ KBGM - KIAD

Flight Track Log - Related Links

Times and Time Zones

All times are in EDT time to prevent confusion due to time zone crossing. See the UCA3596 flight status page for this flight to view local times or setup timezone preferences in your user account.

Time Position Orientation Groundspeed Altitude Reporting Facility
EDT Latitude Longitude Course Direction KTS MPH feet Rate Location/Type
04:29PM 42.2203 -76.0519 189° South 260 299 3,900  Level New York Center
04:30PM 42.1733 -76.0789 203° Southwest 232 267 5,600 1,620 Climbing New York Center
04:31PM 42.1322 -76.1119 211° Southwest 177 204 7,200 1,500 Climbing New York Center
04:32PM 42.0931 -76.1478 214° Southwest 177 204 8,700 4,380 Climbing New York Center
04:33PM 42.0500 -76.1833 212° Southwest 177 204 16,000 1,380 Climbing New York Center
04:34PM 42.0044 -76.2217 212° Southwest 182 209 11,500 -1,620 Descending New York Center
04:35PM 41.1323 -76.4853 189° South  Level Estimated
04:35PM 41.9675 -76.2519 211° Southwest 182 209 12,800  Level New York Center
04:36PM 41.9264 -76.2847 211° Southwest 182 209 14,100 1,260 Climbing New York Center
04:37PM 41.8789 -76.3228 211° Southwest 177 204 15,400 900 Climbing New York Center
04:38PM 41.8333 -76.3633 214° Southwest 182 209 16,000 300 Climbing New York Center
04:39PM 41.7833 -76.4067 213° Southwest 202 232 16,000 -60 Level New York Center
04:40PM 41.7314 -76.4467 210° Southwest 231 266 15,900 -60 Descending New York Center
04:41PM 41.6728 -76.5000 214° Southwest 241 277 15,900  Level New York Center
04:42PM 41.6164 -76.5450 211° Southwest 241 277 15,900  Level New York Center
04:43PM 41.5600 -76.5900 211° Southwest 241 277 15,900  Level New York Center
04:44PM 41.5122 -76.6331 214° Southwest 241 277 15,900  Level New York Center
04:45PM 41.4558 -76.6781 211° Southwest 241 277 15,900  Level New York Center
04:46PM 41.4011 -76.7258 213° Southwest 241 277 15,900  Level New York Center
04:47PM 41.3469 -76.7708 212° Southwest 241 277 15,900  Level New York Center
04:48PM 41.2811 -76.7925 194° South 241 277 15,900  Level New York Center
04:49PM 41.2161 -76.8006 185° South 241 277 15,900  Level New York Center
04:50PM 41.1508 -76.8139 189° South 246 283 15,900  Level New York Center
04:51PM 41.0856 -76.8275 189° South 241 277 16,000  Climbing New York Center
04:52PM 41.0203 -76.8408 189° South 241 277 16,000 -60 Level New York Center
04:53PM 40.9550 -76.8542 189° South 241 277 15,900 -360 Descending New York Center
04:54PM 40.8814 -76.8697 189° South 241 277 15,300 -900 Descending New York Center
04:55PM 40.8161 -76.8831 189° South 253 291 14,100 -1,320 Descending New York Center
04:56PM 40.7378 -76.9033 191° South 267 307 12,700 -1,080 Descending New York Center
04:57PM 40.6744 -76.9225 193° South 262 302 12,000 -300 Descending New York Center
04:58PM 40.6003 -76.9458 193° South 256 295 12,100  Climbing New York Center
04:59PM 40.5450 -76.9628 193° South 243 280 12,000 -120 Descending New York Center
05:00PM 40.4753 -76.9839 193° South 243 280 11,900  Descending New York Center
05:01PM 40.4181 -77.0006 193° South 243 280 12,000  Climbing New York Center
05:02PM 40.3481 -77.0242 194° South 243 280 11,900 -240 Descending New York Center
05:03PM 40.2931 -77.0408 193° South 243 280 11,600 -600 Descending New York Center
05:04PM 40.2186 -77.0642 193° South 243 280 10,700 -960 Descending New York Center
05:05PM 40.1489 -77.0822 191° South 248 285 9,700 -660 Descending New York Center
05:07PM 40.0333 -77.1167 193° South 244 281 9,000 -240 Descending Potomac TRACON
05:08PM 39.9833 -77.1333 194° South 234 269 9,100  Climbing Potomac TRACON
05:09PM 39.9167 -77.1500 191° South 228 262 9,000 -60 Descending Potomac TRACON
05:10PM 39.8500 -77.1667 191° South 227 261 9,000 -420 Level Potomac TRACON
05:11PM 39.8000 -77.2167 218° Southwest 239 275 8,200 -900 Descending Potomac TRACON
05:12PM 39.7333 -77.2667 210° Southwest 240 276 7,300 -600 Descending Potomac TRACON
05:13PM 39.6833 -77.3000 207° Southwest 235 270 7,000 -360 Descending Potomac TRACON
05:14PM 39.6333 -77.3500 218° Southwest 217 250 6,600 -540 Descending Potomac TRACON
05:15PM 39.5833 -77.3833 207° Southwest 232 267 6,000 -660 Descending Potomac TRACON
05:16PM 39.5000 -77.4167 197° South 233 268 5,300 -660 Descending Potomac TRACON
05:17PM 39.4500 -77.4333 194° South 215 247 4,700 -600 Descending Potomac TRACON
05:18PM 39.3833 -77.4333 180° South 195 224 4,100 -360 Descending Potomac TRACON
05:19PM 39.3333 -77.4333 180° South 193 222 4,000 -360 Descending Potomac TRACON
05:20PM 39.2833 -77.4333 180° South 194 223 3,400 -540 Descending Potomac TRACON
05:21PM 39.2333 -77.4333 180° South 186 214 3,000 -240 Descending Potomac TRACON
05:22PM 39.1833 -77.4333 180° South 183 211 3,000  Level Potomac TRACON
05:23PM 39.1333 -77.4333 180° South 167 192 3,000 -120 Level Potomac TRACON
05:24PM 39.1000 -77.4333 180° South 141 162 2,800 -480 Descending Potomac TRACON
05:25PM 39.0500 -77.4333 180° South 153 176 2,100 -780 Descending Potomac TRACON
05:26PM 39.0167 -77.4333 180° South 141 162 1,300 -720 Descending Potomac TRACON
05:27PM 38.9833 -77.4333 180° South 119 137 700 -600 Descending Potomac TRACON